Time;durP1;ratioP1;P1;durP2;ratioP2;P2;SDS_P1;SDS_P2;PMS_P1;PMS_P2;Temp;Humidity;BMP_temperature;BMP_pressure;BME280_temperature;BME280_humidity;BME280_pressure;Samples;Min_cycle;Max_cycle;Signal;HPM_P1;HPM_P2
2024/03/12 00:00:43;;;;;;;75.33;35.03;;;8.10;99.90;;;;;;6247477;22;37089;-79
2024/03/12 00:03:11;;;;;;;84.37;37.97;;;8.10;99.90;;;;;;6247650;22;37698;-77
2024/03/12 00:05:37;;;;;;;75.87;36.40;;;8.10;99.90;;;;;;6278004;22;38207;-77
2024/03/12 00:08:04;;;;;;;76.67;37.57;;;8.00;99.90;;;;;;6273037;22;38053;-77
2024/03/12 00:10:30;;;;;;;77.80;38.13;;;8.00;99.90;;;;;;6273391;22;38222;-77
2024/03/12 00:12:58;;;;;;;70.43;33.63;;;8.00;99.90;;;;;;6274992;22;39630;-79
2024/03/12 00:15:25;;;;;;;71.70;36.40;;;8.00;99.90;;;;;;6273509;22;39369;-77
2024/03/12 00:17:53;;;;;;;78.50;35.83;;;8.00;99.90;;;;;;6246889;22;37062;-77
2024/03/12 00:20:35;;;;;;;81.73;35.30;;;8.00;99.90;;;;;;6273546;22;37342;-77
2024/03/12 00:23:03;;;;;;;71.60;34.95;;;8.00;99.90;;;;;;6245885;22;39111;-76
2024/03/12 00:25:30;;;;;;;75.07;35.17;;;8.00;99.90;;;;;;6272386;22;38697;-77
2024/03/12 00:27:57;;;;;;;70.40;34.90;;;8.00;99.90;;;;;;6246894;22;38673;-77
2024/03/12 00:30:28;;;;;;;70.63;34.07;;;8.00;99.90;;;;;;6271815;22;37786;-77
2024/03/12 00:32:56;;;;;;;76.73;34.80;;;8.00;99.90;;;;;;6274084;22;39881;-76
2024/03/12 00:35:24;;;;;;;70.53;34.57;;;8.00;99.90;;;;;;6273640;22;39158;-77
2024/03/12 00:37:56;;;;;;;65.33;32.83;;;8.00;99.90;;;;;;6245890;22;38288;-77
2024/03/12 00:40:32;;;;;;;68.88;32.85;;;8.00;99.90;;;;;;6276023;22;37872;-78
2024/03/12 00:43:00;;;;;;;60.30;31.60;;;8.00;99.90;;;;;;6249268;22;37681;-79
2024/03/12 00:45:29;;;;;;;66.70;32.60;;;8.00;99.90;;;;;;6248066;22;39459;-77
2024/03/12 00:47:57;;;;;;;67.50;33.27;;;8.00;99.90;;;;;;6276880;22;37772;-78
2024/03/12 00:50:23;;;;;;;79.13;34.20;;;8.00;99.90;;;;;;6247908;22;37734;-78
2024/03/12 00:52:53;;;;;;;75.50;32.60;;;8.00;99.90;;;;;;6276266;22;38558;-78
2024/03/12 00:55:20;;;;;;;66.17;32.57;;;8.00;99.90;;;;;;6274150;22;38643;-77
2024/03/12 00:57:48;;;;;;;61.63;32.70;;;8.10;99.90;;;;;;6249265;22;38827;-78
2024/03/12 01:00:22;;;;;;;72.17;31.93;;;8.10;99.90;;;;;;6276324;22;38210;-78
2024/03/12 01:02:49;;;;;;;61.90;32.03;;;8.00;99.90;;;;;;6247263;22;39214;-78
2024/03/12 01:05:25;;;;;;;68.97;33.37;;;8.00;99.90;;;;;;6273014;22;38500;-79
2024/03/12 01:07:58;;;;;;;74.00;31.40;;;8.00;99.90;;;;;;6273359;22;38821;-78
2024/03/12 01:10:26;;;;;;;62.63;30.60;;;8.00;99.90;;;;;;6243577;22;38205;-78
2024/03/12 01:12:54;;;;;;;66.63;30.63;;;8.00;99.90;;;;;;6246060;22;38388;-78
2024/03/12 01:15:23;;;;;;;68.97;29.30;;;7.90;99.90;;;;;;6273077;22;38611;-78
2024/03/12 01:17:50;;;;;;;60.07;29.93;;;7.90;99.90;;;;;;6272994;22;38178;-78
2024/03/12 01:20:19;;;;;;;59.27;30.13;;;7.90;99.90;;;;;;6274965;22;38707;-78
2024/03/12 01:22:45;;;;;;;72.63;31.17;;;7.90;99.90;;;;;;6273506;22;38360;-78
2024/03/12 01:25:12;;;;;;;58.23;29.83;;;7.90;99.90;;;;;;6243078;22;39807;-78
2024/03/12 01:27:41;;;;;;;60.83;30.40;;;7.90;99.90;;;;;;6246152;22;39882;-78
2024/03/12 01:30:14;;;;;;;73.57;33.27;;;7.90;99.90;;;;;;6244140;22;37848;-78
2024/03/12 01:32:45;;;;;;;65.93;32.73;;;7.90;99.90;;;;;;6273404;22;39366;-78
2024/03/12 01:35:12;;;;;;;61.17;30.40;;;7.90;99.90;;;;;;6245904;22;40072;-78
2024/03/12 01:37:45;;;;;;;67.10;31.17;;;7.90;99.90;;;;;;6246782;22;39417;-79
2024/03/12 01:40:25;;;;;;;;;;;7.90;99.90;;;;;;6246984;22;38155;-79
2024/03/12 01:43:03;;;;;;;66.50;31.43;;;8.00;99.90;;;;;;6276765;22;40539;-78
2024/03/12 01:45:31;;;;;;;77.53;33.43;;;7.90;99.90;;;;;;6245474;22;47414;-78
2024/03/12 01:48:08;;;;;;;64.37;31.80;;;7.90;99.90;;;;;;6248242;22;38991;-78
2024/03/12 01:50:38;;;;;;;77.20;35.70;;;7.90;99.90;;;;;;6273017;22;48983;-79
2024/03/12 01:53:05;;;;;;;72.70;33.73;;;7.90;99.90;;;;;;6275570;22;39919;-79
2024/03/12 01:55:34;;;;;;;66.73;33.63;;;7.90;99.90;;;;;;6245481;22;37597;-78
2024/03/12 01:58:01;;;;;;;79.60;36.40;;;7.90;99.90;;;;;;6246541;22;38515;-78
2024/03/12 02:03:03;;;;;;;66.07;33.33;;;7.90;99.90;;;;;;6281797;22;20027;-76
2024/03/12 02:05:30;;;;;;;66.73;33.47;;;7.90;99.90;;;;;;6275852;22;39250;-77
2024/03/12 02:07:56;;;;;;;61.90;33.30;;;7.90;99.90;;;;;;6280561;22;37353;-77
2024/03/12 02:10:24;;;;;;;65.60;32.77;;;7.90;99.90;;;;;;6307665;22;37425;-77
2024/03/12 02:12:51;;;;;;;63.93;33.63;;;7.90;99.90;;;;;;6310919;22;38831;-78
2024/03/12 02:15:17;;;;;;;65.93;32.10;;;7.90;99.90;;;;;;6307495;22;38229;-78
2024/03/12 02:17:44;;;;;;;71.47;33.33;;;7.90;99.90;;;;;;6279156;22;36995;-78
2024/03/12 02:20:12;;;;;;;63.33;31.87;;;7.90;99.90;;;;;;6274940;22;37788;-78
2024/03/12 02:22:39;;;;;;;60.83;29.60;;;7.90;99.90;;;;;;6278951;22;39021;-78
2024/03/12 02:25:06;;;;;;;63.53;29.23;;;7.80;99.90;;;;;;6276196;22;37488;-77
2024/03/12 02:27:33;;;;;;;63.93;28.97;;;7.90;99.90;;;;;;6308703;22;39299;-76
2024/03/12 02:30:02;;;;;;;57.60;27.30;;;7.90;99.90;;;;;;6279073;22;37694;-77
2024/03/12 02:32:28;;;;;;;58.53;27.50;;;7.80;99.90;;;;;;6307534;22;38301;-78
2024/03/12 02:34:54;;;;;;;51.47;27.37;;;7.80;99.90;;;;;;6308021;22;38121;-78
2024/03/12 02:37:21;;;;;;;54.73;27.57;;;7.80;99.90;;;;;;6277664;22;39090;-77
2024/03/12 02:39:47;;;;;;;58.17;28.40;;;7.80;99.90;;;;;;6280444;22;37825;-77
2024/03/12 02:42:13;;;;;;;57.40;27.37;;;7.80;99.90;;;;;;6279294;22;38465;-78
2024/03/12 02:44:39;;;;;;;61.50;26.87;;;7.80;99.90;;;;;;6308245;22;38560;-78
2024/03/12 02:47:05;;;;;;;57.33;28.33;;;7.80;99.90;;;;;;6278445;22;37713;-77
2024/03/12 02:49:32;;;;;;;51.43;25.73;;;7.70;99.90;;;;;;6281249;22;36574;-76
2024/03/12 02:52:01;;;;;;;68.93;28.13;;;7.70;99.90;;;;;;6280134;22;40103;-77
2024/03/12 02:54:27;;;;;;;59.53;26.93;;;7.70;99.90;;;;;;6260927;22;47034;-78
2024/03/12 02:56:53;;;;;;;63.90;27.40;;;7.80;99.90;;;;;;6302492;22;38097;-77
2024/03/12 02:59:21;;;;;;;60.73;26.63;;;7.80;99.90;;;;;;6282012;22;39732;-78
2024/03/12 03:01:47;;;;;;;66.03;27.13;;;7.80;99.90;;;;;;6267085;22;40190;-78
2024/03/12 03:04:13;;;;;;;53.30;25.97;;;7.80;99.90;;;;;;6311759;22;39861;-78
2024/03/12 03:06:39;;;;;;;59.07;29.40;;;7.80;99.90;;;;;;6287588;22;37091;-77
2024/03/12 03:09:06;;;;;;;57.73;26.83;;;7.80;99.90;;;;;;6292902;22;38282;-77
2024/03/12 03:11:32;;;;;;;52.27;26.53;;;7.80;99.90;;;;;;6321191;22;39101;-78
2024/03/12 03:14:02;;;;;;;60.60;28.70;;;7.80;99.90;;;;;;6287875;22;37864;-78
2024/03/12 03:16:28;;;;;;;64.97;30.90;;;7.80;99.90;;;;;;6289720;22;47195;-78
2024/03/12 03:18:55;;;;;;;61.43;29.07;;;7.80;99.90;;;;;;6318279;22;38826;-78
2024/03/12 03:21:21;;;;;;;65.17;28.80;;;7.80;99.90;;;;;;6311772;22;39572;-78
2024/03/12 03:23:47;;;;;;;63.50;28.20;;;7.80;99.90;;;;;;6312542;22;38526;-78
2024/03/12 03:26:13;;;;;;;61.83;27.23;;;7.70;99.90;;;;;;6268014;22;38933;-78
2024/03/12 03:28:40;;;;;;;57.10;27.03;;;7.80;99.90;;;;;;6310552;22;38565;-78
2024/03/12 03:31:06;;;;;;;55.10;26.87;;;7.80;99.90;;;;;;6281457;22;38596;-78
2024/03/12 03:33:33;;;;;;;61.63;27.00;;;7.80;99.90;;;;;;6310547;22;38817;-78
2024/03/12 03:35:59;;;;;;;53.57;24.33;;;7.80;99.90;;;;;;6282502;22;40016;-77
2024/03/12 03:38:27;;;;;;;53.60;24.83;;;7.80;99.90;;;;;;6281719;22;38254;-77
2024/03/12 03:40:54;;;;;;;61.20;26.73;;;7.80;99.90;;;;;;6312290;22;39168;-78
2024/03/12 03:43:20;;;;;;;58.63;26.57;;;7.80;99.90;;;;;;6284614;22;37552;-77
2024/03/12 03:45:47;;;;;;;56.87;26.17;;;7.70;99.90;;;;;;6288449;22;38217;-77
2024/03/12 03:48:13;;;;;;;63.13;26.33;;;7.70;99.90;;;;;;6317323;22;38361;-77
2024/03/12 03:50:40;;;;;;;55.07;25.53;;;7.70;99.90;;;;;;6289039;22;39348;-78
2024/03/12 03:53:08;;;;;;;62.07;25.60;;;7.70;99.90;;;;;;6287899;22;39139;-78
2024/03/12 03:55:35;;;;;;;55.50;24.33;;;7.70;99.90;;;;;;6289298;22;38405;-77
2024/03/12 03:58:01;;;;;;;69.83;26.33;;;7.70;99.90;;;;;;6285717;22;36211;-77
2024/03/12 04:00:31;;;;;;;54.47;23.47;;;7.70;99.90;;;;;;6287104;22;47082;-77
2024/03/12 04:02:57;;;;;;;49.73;24.13;;;7.70;99.90;;;;;;6286265;22;39751;-78
2024/03/12 04:05:24;;;;;;;50.73;23.87;;;7.70;99.90;;;;;;6287593;22;38947;-78
2024/03/12 04:07:50;;;;;;;45.10;21.77;;;7.60;99.90;;;;;;6312735;22;37678;-77
2024/03/12 04:10:17;;;;;;;55.17;22.70;;;7.70;99.90;;;;;;6309870;22;39492;-76
2024/03/12 04:12:47;;;;;;;50.37;23.77;;;7.70;99.90;;;;;;6311094;22;38604;-77
2024/03/12 04:15:13;;;;;;;53.23;21.53;;;7.70;99.90;;;;;;6283170;22;37360;-78
2024/03/12 04:17:42;;;;;;;45.70;22.00;;;7.70;99.90;;;;;;6285731;22;36051;-77
2024/03/12 04:20:11;;;;;;;49.43;20.63;;;7.70;99.90;;;;;;6284240;22;38968;-77
2024/03/12 04:22:38;;;;;;;49.10;22.13;;;7.70;99.90;;;;;;6289070;22;37212;-76
2024/03/12 04:25:09;;;;;;;43.40;20.53;;;7.70;99.90;;;;;;6290144;22;37032;-78
2024/03/12 04:27:38;;;;;;;58.43;23.00;;;7.70;99.90;;;;;;6288771;22;36356;-77
2024/03/12 04:30:05;;;;;;;47.03;20.60;;;7.70;99.90;;;;;;6288916;22;38079;-77
2024/03/12 04:32:31;;;;;;;47.03;21.30;;;7.70;99.90;;;;;;6313074;22;46920;-77
2024/03/12 04:34:58;;;;;;;55.97;22.73;;;7.70;99.90;;;;;;6318544;22;38228;-78
2024/03/12 04:37:24;;;;;;;49.67;21.60;;;7.70;99.90;;;;;;6319260;22;38235;-78
2024/03/12 04:39:51;;;;;;;43.30;21.43;;;7.70;99.90;;;;;;6289737;22;38661;-77
2024/03/12 04:42:17;;;;;;;35.77;19.73;;;7.70;99.90;;;;;;6290934;22;37718;-77
2024/03/12 04:44:43;;;;;;;40.17;19.30;;;7.70;99.90;;;;;;6285011;22;37643;-78
2024/03/12 04:47:09;;;;;;;36.73;18.13;;;7.70;99.90;;;;;;6284405;22;36997;-77
2024/03/12 04:49:38;;;;;;;45.83;19.40;;;7.70;99.90;;;;;;6284385;22;38143;-77
2024/03/12 04:52:04;;;;;;;39.30;18.07;;;7.70;99.90;;;;;;6284090;22;38198;-76
2024/03/12 04:54:31;;;;;;;33.27;17.90;;;7.70;99.90;;;;;;6284140;22;37495;-77
2024/03/12 04:56:58;;;;;;;38.37;17.67;;;7.70;99.90;;;;;;6311752;22;38002;-77
2024/03/12 04:59:24;;;;;;;43.77;18.63;;;7.80;99.90;;;;;;6309027;22;39597;-76
2024/03/12 05:01:50;;;;;;;40.87;18.27;;;7.70;99.90;;;;;;6282384;22;37283;-77
2024/03/12 05:04:17;;;;;;;37.93;17.57;;;7.70;99.90;;;;;;6284256;22;37018;-77
2024/03/12 05:06:43;;;;;;;36.60;17.73;;;7.70;99.90;;;;;;6313247;22;38043;-77
2024/03/12 05:09:09;;;;;;;32.97;17.07;;;7.70;99.90;;;;;;6280683;22;37451;-78
2024/03/12 05:11:36;;;;;;;36.17;16.53;;;7.80;99.90;;;;;;6283975;22;37860;-77
2024/03/12 05:14:03;;;;;;;40.33;17.57;;;7.70;99.90;;;;;;6298211;22;37674;-77
2024/03/12 05:16:31;;;;;;;31.53;17.17;;;7.70;99.90;;;;;;6309329;22;38498;-77
2024/03/12 05:18:58;;;;;;;34.53;16.63;;;7.80;99.90;;;;;;6310633;22;38517;-77
2024/03/12 05:21:26;;;;;;;45.50;20.67;;;7.70;99.90;;;;;;6267593;22;37517;-77
2024/03/12 05:23:55;;;;;;;38.87;18.30;;;7.70;99.90;;;;;;6283250;22;37448;-77
2024/03/12 05:26:25;;;;;;;43.33;20.10;;;7.70;99.90;;;;;;6266223;22;36311;-78
2024/03/12 05:28:54;;;;;;;42.93;19.13;;;7.70;99.90;;;;;;6282181;22;38699;-77
2024/03/12 05:31:20;;;;;;;48.90;20.03;;;7.70;99.90;;;;;;6261650;22;38522;-79
2024/03/12 05:33:48;;;;;;;39.97;18.87;;;7.70;99.90;;;;;;6282084;22;38264;-77
2024/03/12 05:36:14;;;;;;;51.20;20.70;;;7.70;99.90;;;;;;6282066;22;36365;-77
2024/03/12 05:39:04;;;;;;;39.77;20.00;;;7.60;99.90;;;;;;6309340;22;38685;-77
2024/03/12 05:41:41;;;;;;;51.27;20.83;;;7.60;99.90;;;;;;6279135;22;48396;-77
2024/03/12 05:49:39;;;;;;;37.00;19.20;;;7.60;99.90;;;;;;6313327;22;49665;-77
2024/03/12 05:52:07;;;;;;;37.53;18.37;;;7.60;99.90;;;;;;6290973;22;38991;-78
2024/03/12 05:54:33;;;;;;;40.00;21.57;;;7.60;99.90;;;;;;6287539;22;36746;-78
2024/03/12 05:57:01;;;;;;;41.00;21.13;;;7.60;99.90;;;;;;6288102;22;36689;-78
2024/03/12 05:59:27;;;;;;;45.00;22.13;;;7.60;99.90;;;;;;6287698;22;47071;-77
2024/03/12 06:01:53;;;;;;;39.17;21.00;;;7.60;99.90;;;;;;6287146;22;37631;-79
2024/03/12 06:04:20;;;;;;;38.40;19.63;;;7.60;99.90;;;;;;6283782;22;37408;-78
2024/03/12 06:06:46;;;;;;;40.50;20.63;;;7.60;99.90;;;;;;6284388;22;37256;-80
2024/03/12 06:09:12;;;;;;;41.83;20.67;;;7.60;99.90;;;;;;6311711;22;38700;-78
2024/03/12 06:11:39;;;;;;;34.57;19.90;;;7.60;99.90;;;;;;6311152;22;38609;-78
2024/03/12 06:14:06;;;;;;;40.33;20.63;;;7.60;99.90;;;;;;6306548;22;38984;-77
2024/03/12 06:16:33;;;;;;;47.77;23.50;;;7.60;99.90;;;;;;6282653;22;37683;-78
2024/03/12 06:18:59;;;;;;;36.37;20.23;;;7.70;99.90;;;;;;6310316;22;38912;-78
2024/03/12 06:21:25;;;;;;;42.93;22.30;;;7.60;99.90;;;;;;6277525;22;37550;-77
2024/03/12 06:23:53;;;;;;;44.73;22.77;;;7.60;99.90;;;;;;6278952;22;37177;-77
2024/03/12 06:26:21;;;;;;;44.53;22.40;;;7.50;99.90;;;;;;6303361;22;38642;-78
2024/03/12 06:28:47;;;;;;;39.93;21.03;;;7.60;99.90;;;;;;6279078;22;38666;-77
2024/03/12 06:31:16;;;;;;;41.20;21.50;;;7.60;99.90;;;;;;6299149;22;38358;-77
2024/03/12 06:33:49;;;;;;;44.07;23.30;;;7.60;99.90;;;;;;6273741;22;38676;-77
2024/03/12 06:36:15;;;;;;;34.93;20.40;;;7.50;99.90;;;;;;6245495;22;38072;-77
2024/03/12 06:38:42;;;;;;;36.60;20.93;;;7.50;99.90;;;;;;6257242;22;37663;-77
2024/03/12 06:41:10;;;;;;;42.67;22.00;;;7.50;99.90;;;;;;6256796;22;37394;-77
2024/03/12 06:43:42;;;;;;;39.00;21.63;;;7.50;99.90;;;;;;6259461;22;39263;-77
2024/03/12 06:46:09;;;;;;;39.33;21.25;;;7.50;99.90;;;;;;6265991;22;37328;-76
2024/03/12 06:48:38;;;;;;;40.27;21.07;;;7.50;99.90;;;;;;6277323;22;39248;-76
2024/03/12 06:51:06;;;;;;;35.53;19.03;;;7.50;99.90;;;;;;6290338;22;39523;-76
2024/03/12 06:53:37;;;;;;;41.17;21.10;;;7.50;99.90;;;;;;6263182;22;39881;-75
2024/03/12 06:56:07;;;;;;;31.73;18.40;;;7.50;99.90;;;;;;6262166;22;37878;-76
2024/03/12 06:58:34;;;;;;;32.33;19.23;;;7.50;99.90;;;;;;6291798;22;38834;-75
2024/03/12 07:01:00;;;;;;;36.80;19.77;;;7.50;99.90;;;;;;6258478;22;37388;-76
2024/03/12 07:03:29;;;;;;;31.17;18.57;;;7.60;99.90;;;;;;6269355;22;46918;-76
2024/03/12 07:05:56;;;;;;;37.63;19.93;;;7.60;99.90;;;;;;6265234;22;36478;-76
2024/03/12 07:08:25;;;;;;;35.60;18.47;;;7.70;99.90;;;;;;6288908;22;39268;-76
2024/03/12 07:10:51;;;;;;;38.90;20.00;;;7.70;99.90;;;;;;6261693;22;37261;-76
2024/03/12 07:13:22;;;;;;;40.70;19.80;;;7.70;99.90;;;;;;6259896;22;37088;-77
2024/03/12 07:15:49;;;;;;;37.50;19.17;;;7.70;99.90;;;;;;6258539;22;36612;-77
2024/03/12 07:18:15;;;;;;;33.53;19.27;;;7.80;99.90;;;;;;6256865;22;39964;-78
2024/03/12 07:20:41;;;;;;;32.93;18.03;;;7.80;99.90;;;;;;6262342;22;37751;-78
2024/03/12 07:23:08;;;;;;;32.80;18.20;;;7.90;99.90;;;;;;6259577;22;37472;-78
2024/03/12 07:25:34;;;;;;;32.20;18.03;;;7.90;99.90;;;;;;6291548;22;37625;-78
2024/03/12 07:28:05;;;;;;;36.57;17.33;;;8.00;99.90;;;;;;6262416;22;37986;-76
2024/03/12 07:30:32;;;;;;;28.90;15.80;;;7.90;99.90;;;;;;6262608;22;47953;-77
2024/03/12 07:32:59;;;;;;;24.27;16.30;;;7.90;99.90;;;;;;6288922;22;38169;-77
2024/03/12 07:35:25;;;;;;;27.20;17.00;;;8.00;99.90;;;;;;6260695;22;38308;-77
2024/03/12 07:37:51;;;;;;;28.40;16.73;;;8.00;99.90;;;;;;6291458;22;38262;-77
2024/03/12 07:40:18;;;;;;;28.43;16.40;;;8.10;99.90;;;;;;6262393;22;37708;-77
2024/03/12 07:42:44;;;;;;;29.57;17.20;;;8.10;99.90;;;;;;6291946;22;38450;-78
2024/03/12 07:45:12;;;;;;;27.93;15.77;;;8.10;99.90;;;;;;6301832;22;37547;-79
2024/03/12 07:47:41;;;;;;;26.20;15.50;;;8.00;99.90;;;;;;6276949;22;38782;-78
2024/03/12 07:50:09;;;;;;;25.60;16.27;;;8.10;99.90;;;;;;6275076;22;39104;-78
2024/03/12 07:52:35;;;;;;;29.07;16.63;;;8.10;99.90;;;;;;6264745;22;37456;-78
2024/03/12 07:55:02;;;;;;;34.30;16.40;;;8.10;99.90;;;;;;6262171;22;38050;-79
2024/03/12 07:57:31;;;;;;;26.13;16.37;;;8.10;99.90;;;;;;6291662;22;38289;-78
2024/03/12 08:00:04;;;;;;;29.83;16.13;;;8.10;99.90;;;;;;6290338;22;40364;-78
2024/03/12 08:02:30;;;;;;;26.73;16.95;;;8.10;99.90;;;;;;6260152;22;37829;-79
2024/03/12 08:04:57;;;;;;;31.47;17.30;;;8.10;99.90;;;;;;6260673;22;36412;-78
2024/03/12 08:07:23;;;;;;;37.40;18.70;;;8.10;99.90;;;;;;6258401;22;37638;-78
2024/03/12 08:09:49;;;;;;;29.77;17.23;;;8.10;99.90;;;;;;6285774;22;38308;-78
2024/03/12 08:12:17;;;;;;;36.33;18.30;;;8.20;99.90;;;;;;6260744;22;37107;-78
2024/03/12 08:14:44;;;;;;;34.33;18.50;;;8.20;99.90;;;;;;6265561;22;37645;-78
2024/03/12 08:17:14;;;;;;;32.13;18.43;;;8.30;99.90;;;;;;6274533;22;37829;-78
2024/03/12 08:19:44;;;;;;;32.40;20.23;;;8.30;99.90;;;;;;6275290;22;37636;-77
2024/03/12 08:22:10;;;;;;;34.67;20.23;;;8.30;99.90;;;;;;6275895;22;38629;-78
2024/03/12 08:24:37;;;;;;;37.47;21.17;;;8.40;99.90;;;;;;6279159;22;36813;-77
2024/03/12 08:27:06;;;;;;;38.73;21.40;;;8.40;99.90;;;;;;6278882;22;40239;-78
2024/03/12 08:29:33;;;;;;;36.53;21.13;;;8.40;99.90;;;;;;6279662;22;39153;-77
2024/03/12 08:31:59;;;;;;;39.00;21.00;;;8.40;99.90;;;;;;6281618;22;36908;-78
2024/03/12 08:34:26;;;;;;;38.13;21.20;;;8.50;99.90;;;;;;6286879;22;38350;-76
2024/03/12 08:36:52;;;;;;;37.47;21.77;;;8.50;99.90;;;;;;6316861;22;38952;-78
2024/03/12 08:39:18;;;;;;;39.67;23.20;;;8.50;99.90;;;;;;6286228;22;38689;-77
2024/03/12 08:41:45;;;;;;;39.27;23.10;;;8.50;99.90;;;;;;6289499;22;41216;-76
2024/03/12 08:44:13;;;;;;;37.63;22.87;;;8.50;99.90;;;;;;6288886;22;36074;-79
2024/03/12 08:46:43;;;;;;;37.13;22.53;;;8.60;99.90;;;;;;6298295;22;38924;-78
2024/03/12 08:49:10;;;;;;;39.23;21.70;;;8.70;99.90;;;;;;6264182;22;38314;-78
2024/03/12 08:51:39;;;;;;;37.53;21.77;;;8.70;99.90;;;;;;6260915;22;38919;-77
2024/03/12 08:54:11;;;;;;;35.20;21.03;;;8.80;99.90;;;;;;6264360;22;36923;-78
2024/03/12 08:56:37;;;;;;;39.33;21.58;;;8.90;99.90;;;;;;6263345;22;39638;-77
2024/03/12 08:59:08;;;;;;;35.40;21.20;;;9.00;99.90;;;;;;6273808;22;39723;-78
2024/03/12 09:01:35;;;;;;;34.83;20.97;;;9.00;99.90;;;;;;6279818;22;39044;-78
2024/03/12 09:04:07;;;;;;;34.43;20.33;;;9.10;99.90;;;;;;6307489;22;38086;-78
2024/03/12 09:06:33;;;;;;;38.25;21.38;;;9.30;99.90;;;;;;6307068;22;48270;-78
2024/03/12 09:09:00;;;;;;;33.17;20.42;;;9.40;99.90;;;;;;6278627;22;39726;-78
2024/03/12 09:11:26;;;;;;;33.85;20.60;;;9.50;91.10;;;;;;6279742;22;40710;-78
2024/03/12 09:13:54;;;;;;;27.95;19.00;;;9.50;81.90;;;;;;6306825;22;37084;-78
2024/03/12 09:16:20;;;;;;;31.70;18.35;;;9.60;69.40;;;;;;6305263;22;39919;-78
2024/03/12 09:18:47;;;;;;;26.15;18.23;;;9.70;60.90;;;;;;6306908;22;38247;-77
2024/03/12 09:21:14;;;;;;;29.50;18.85;;;9.80;50.80;;;;;;6279357;22;38519;-78
2024/03/12 09:23:42;;;;;;;32.88;20.38;;;10.00;45.50;;;;;;6282463;22;36782;-78
2024/03/12 09:26:08;;;;;;;29.70;18.75;;;9.90;27.50;;;;;;6283165;22;37625;-78
2024/03/12 09:28:38;;;;;;;30.65;18.25;;;9.90;21.70;;;;;;6281861;22;37324;-78
2024/03/12 09:31:05;;;;;;;30.98;18.65;;;9.90;24.20;;;;;;6279870;22;38982;-77
2024/03/12 09:33:32;;;;;;;33.03;20.08;;;9.70;27.70;;;;;;6310051;22;37532;-77
2024/03/12 09:35:58;;;;;;;32.10;21.47;;;9.50;33.40;;;;;;6286445;22;37639;-78
2024/03/12 09:38:24;;;;;;;37.55;21.30;;;9.50;44.30;;;;;;6284380;22;37650;-77
2024/03/12 09:40:54;;;;;;;37.33;22.17;;;9.40;40.70;;;;;;6284682;22;38623;-78
2024/03/12 09:43:24;;;;;;;38.00;22.08;;;9.40;55.80;;;;;;6310491;22;37301;-79
2024/03/12 09:45:51;;;;;;;38.00;22.25;;;9.40;50.50;;;;;;6283788;22;39696;-78
2024/03/12 09:48:18;;;;;;;33.95;21.83;;;9.30;50.50;;;;;;6307530;22;38543;-78
2024/03/12 09:50:44;;;;;;;34.35;22.25;;;9.40;55.50;;;;;;6282641;22;38762;-78
2024/03/12 09:53:11;;;;;;;41.20;24.03;;;9.50;50.30;;;;;;6310026;22;38550;-78
2024/03/12 09:55:39;;;;;;;37.43;24.37;;;9.50;67.70;;;;;;6281331;22;40414;-78
2024/03/12 09:58:08;;;;;;;48.70;26.37;;;9.40;73.30;;;;;;6307628;22;39664;-78
2024/03/12 10:00:36;;;;;;;43.00;25.57;;;9.40;89.00;;;;;;6281504;22;38270;-78
2024/03/12 10:03:04;;;;;;;41.57;26.60;;;9.50;90.00;;;;;;6308951;22;38193;-78
2024/03/12 10:05:31;;;;;;;49.10;27.20;;;9.50;62.90;;;;;;6308920;22;39017;-78
2024/03/12 10:08:15;;;;;;;47.77;28.63;;;9.50;66.90;;;;;;6281084;22;37265;-79
2024/03/12 10:10:46;;;;;;;43.57;27.43;;;9.70;87.80;;;;;;6279570;22;47178;-79
2024/03/12 10:13:17;;;;;;;48.17;28.90;;;9.90;56.80;;;;;;6278725;22;37822;-78
2024/03/12 10:16:00;;;;;;;40.00;26.40;;;9.90;39.70;;;;;;6279468;22;40090;-77
2024/03/12 10:18:26;;;;;;;;;;;9.80;46.90;;;;;;6306957;22;39739;-78
2024/03/12 10:20:55;;;;;;;50.85;27.95;;;10.10;75.20;;;;;;6308351;22;38402;-77
2024/03/12 10:23:29;;;;;;;51.35;28.67;;;10.40;30.50;;;;;;6279550;22;35521;-78
2024/03/12 10:26:11;;;;;;;45.13;28.30;;;10.40;30.30;;;;;;6279735;22;39291;-78
2024/03/12 10:28:39;;;;;;;45.15;28.17;;;10.30;45.20;;;;;;6278961;22;47108;-78
2024/03/12 10:31:08;;;;;;;49.67;30.20;;;10.10;50.20;;;;;;6278006;22;37365;-78
2024/03/12 10:33:42;;;;;;;51.80;30.98;;;10.00;54.80;;;;;;6280345;22;38304;-77
2024/03/12 10:36:11;;;;;;;45.50;29.08;;;9.90;77.10;;;;;;6278683;22;40529;-78
2024/03/12 10:38:42;;;;;;;49.80;29.73;;;10.00;65.90;;;;;;6280956;22;39266;-77
2024/03/12 10:41:19;;;;;;;49.00;30.08;;;10.10;35.60;;;;;;6278331;22;38363;-78
2024/03/12 10:43:49;;;;;;;47.33;29.90;;;9.90;27.30;;;;;;6307392;22;37154;-78
2024/03/12 10:46:17;;;;;;;56.15;32.38;;;10.00;21.40;;;;;;6278428;22;40888;-77
2024/03/12 10:48:47;;;;;;;54.10;31.57;;;10.00;19.70;;;;;;6307204;22;38544;-78
2024/03/12 10:51:17;;;;;;;51.88;31.67;;;10.30;17.40;;;;;;6278642;22;37564;-77
2024/03/12 10:53:51;;;;;;;54.55;31.02;;;10.30;12.10;;;;;;6280638;22;36521;-78
2024/03/12 10:56:18;;;;;;;49.78;30.55;;;10.40;9.20;;;;;;6280132;22;37591;-78
2024/03/12 10:58:48;;;;;;;50.30;28.63;;;10.60;28.70;;;;;;6286607;22;37259;-78
2024/03/12 11:01:18;;;;;;;49.25;29.15;;;11.10;9.10;;;;;;6285335;22;38297;-77
2024/03/12 11:03:44;;;;;;;46.08;28.58;;;11.30;1.00;;;;;;6287130;22;37456;-78
2024/03/12 11:06:14;;;;;;;48.20;29.45;;;11.40;1.00;;;;;;6284220;22;39682;-77
2024/03/12 11:08:44;;;;;;;44.90;29.50;;;11.40;1.00;;;;;;6286923;22;38321;-76
2024/03/12 11:11:11;;;;;;;51.75;31.83;;;11.10;1.00;;;;;;6285471;22;38565;-78
2024/03/12 11:13:38;;;;;;;58.58;32.42;;;11.30;1.00;;;;;;6287906;22;35960;-76
2024/03/12 11:16:12;;;;;;;52.92;32.20;;;11.20;1.00;;;;;;6290715;22;37671;-76
2024/03/12 11:18:39;;;;;;;57.10;33.92;;;11.00;1.00;;;;;;6321487;22;38755;-77
2024/03/12 11:21:10;;;;;;;53.33;32.92;;;11.10;1.00;;;;;;6290684;22;37741;-78
2024/03/12 11:23:36;;;;;;;55.63;33.42;;;11.20;1.00;;;;;;6294252;22;37227;-76
2024/03/12 11:26:10;;;;;;;61.70;35.80;;;11.30;1.00;;;;;;6323884;22;39035;-76
2024/03/12 11:28:50;;;;;;;58.92;37.38;;;11.30;1.00;;;;;;6286818;22;47323;-76
2024/03/12 11:31:19;;;;;;;66.10;38.70;;;10.90;1.00;;;;;;6315683;22;37995;-76
2024/03/12 11:33:51;;;;;;;69.07;40.05;;;10.80;6.50;;;;;;6288635;22;37844;-76
2024/03/12 11:36:21;;;;;;;67.50;41.72;;;10.80;1.00;;;;;;6315691;22;39339;-77
2024/03/12 11:38:54;;;;;;;68.78;41.22;;;10.60;1.00;;;;;;6284719;22;38228;-76
2024/03/12 11:41:21;;;;;;;65.22;40.45;;;10.70;2.30;;;;;;6284938;22;36927;-76
2024/03/12 11:43:48;;;;;;;68.03;41.97;;;10.90;2.30;;;;;;6285206;22;36474;-77
2024/03/12 11:46:20;;;;;;;69.43;41.53;;;11.10;1.00;;;;;;6310168;22;39368;-78
2024/03/12 11:48:48;;;;;;;68.33;43.33;;;11.00;1.00;;;;;;6313073;22;38757;-75
2024/03/12 11:51:15;;;;;;;75.32;44.10;;;10.90;3.40;;;;;;6284754;22;37090;-76
2024/03/12 11:53:44;;;;;;;74.32;44.28;;;10.80;1.50;;;;;;6283268;22;37822;-77
2024/03/12 11:56:18;;;;;;;69.28;43.58;;;10.70;11.20;;;;;;6283493;22;37756;-78
2024/03/12 11:58:51;;;;;;;71.88;44.00;;;10.70;21.70;;;;;;6283132;22;38014;-76
2024/03/12 12:01:23;;;;;;;71.22;42.85;;;10.90;5.40;;;;;;6311186;22;38383;-77
2024/03/12 12:04:01;;;;;;;70.10;43.90;;;10.80;11.90;;;;;;6311265;22;38437;-76
2024/03/12 12:06:29;;;;;;;71.90;43.47;;;10.90;10.80;;;;;;6313412;22;49155;-76
2024/03/12 12:08:55;;;;;;;72.43;45.47;;;10.80;3.00;;;;;;6285324;22;37574;-78
2024/03/12 12:11:23;;;;;;;72.95;44.65;;;11.00;11.10;;;;;;6283649;22;37268;-77
2024/03/12 12:13:54;;;;;;;75.63;44.53;;;11.00;1.00;;;;;;6313119;22;37198;-77
2024/03/12 12:16:20;;;;;;;73.07;44.33;;;11.00;1.00;;;;;;6310491;22;39173;-77
2024/03/12 12:18:47;;;;;;;71.05;43.17;;;11.20;1.00;;;;;;6310417;22;39106;-75
2024/03/12 12:21:17;;;;;;;69.32;44.30;;;11.70;1.00;;;;;;6311572;22;39191;-76
2024/03/12 12:23:45;;;;;;;70.05;43.42;;;11.60;1.00;;;;;;6313166;22;38503;-76
2024/03/12 12:26:18;;;;;;;70.97;42.15;;;11.40;1.00;;;;;;6281858;22;37631;-77
2024/03/12 12:28:54;;;;;;;68.22;42.83;;;11.30;1.00;;;;;;6284425;22;37099;-77
2024/03/12 12:31:23;;;;;;;64.97;41.78;;;11.30;1.00;;;;;;6279263;22;37982;-77
2024/03/12 12:33:51;;;;;;;69.60;41.88;;;11.30;1.00;;;;;;6281153;22;36192;-77
2024/03/12 12:36:21;;;;;;;62.13;40.40;;;11.30;1.00;;;;;;6281323;22;39468;-76
2024/03/12 12:38:49;;;;;;;64.18;39.00;;;11.20;1.00;;;;;;6282657;22;37224;-77
2024/03/12 12:41:21;;;;;;;66.90;40.38;;;11.00;1.00;;;;;;6309642;22;38829;-76
2024/03/12 12:43:48;;;;;;;69.87;40.03;;;10.90;1.00;;;;;;6282918;22;38947;-77
2024/03/12 12:46:17;;;;;;;61.63;38.47;;;11.00;1.00;;;;;;6281025;22;38525;-77
2024/03/12 12:48:47;;;;;;;71.57;40.75;;;11.00;1.00;;;;;;6311509;22;38526;-76